sensor_id;sensor_type;location;lat;lon;timestamp;temperature;humidity
26691;DHT22;14307;51.718;8.938;2023-09-30T00:00:10;12.00;99.90
26691;DHT22;14307;51.718;8.938;2023-09-30T00:02:38;12.00;99.90
26691;DHT22;14307;51.718;8.938;2023-09-30T00:05:05;11.90;99.90
26691;DHT22;14307;51.718;8.938;2023-09-30T00:07:33;11.90;99.90
26691;DHT22;14307;51.718;8.938;2023-09-30T00:10:00;11.90;99.90
26691;DHT22;14307;51.718;8.938;2023-09-30T00:12:27;11.90;99.90
26691;DHT22;14307;51.718;8.938;2023-09-30T00:14:54;11.90;99.90
26691;DHT22;14307;51.718;8.938;2023-09-30T00:17:21;11.90;99.90
26691;DHT22;14307;51.718;8.938;2023-09-30T00:19:48;11.80;99.90
26691;DHT22;14307;51.718;8.938;2023-09-30T00:22:15;11.80;99.90
26691;DHT22;14307;51.718;8.938;2023-09-30T00:24:42;11.80;99.90
26691;DHT22;14307;51.718;8.938;2023-09-30T00:27:09;11.80;99.90
26691;DHT22;14307;51.718;8.938;2023-09-30T00:29:36;11.80;99.90
26691;DHT22;14307;51.718;8.938;2023-09-30T00:32:03;11.80;99.90
26691;DHT22;14307;51.718;8.938;2023-09-30T00:34:34;11.90;99.90
26691;DHT22;14307;51.718;8.938;2023-09-30T00:37:02;11.90;99.90
26691;DHT22;14307;51.718;8.938;2023-09-30T00:39:32;12.00;99.90
26691;DHT22;14307;51.718;8.938;2023-09-30T00:41:59;12.00;99.90
26691;DHT22;14307;51.718;8.938;2023-09-30T00:44:27;12.00;99.90
26691;DHT22;14307;51.718;8.938;2023-09-30T00:46:55;12.00;99.90
26691;DHT22;14307;51.718;8.938;2023-09-30T00:49:26;12.10;99.90
26691;DHT22;14307;51.718;8.938;2023-09-30T00:51:53;12.00;99.90
26691;DHT22;14307;51.718;8.938;2023-09-30T00:54:22;11.90;99.90
26691;DHT22;14307;51.718;8.938;2023-09-30T00:56:52;11.90;99.90
26691;DHT22;14307;51.718;8.938;2023-09-30T00:59:22;11.90;99.90
26691;DHT22;14307;51.718;8.938;2023-09-30T01:01:49;11.80;99.90
26691;DHT22;14307;51.718;8.938;2023-09-30T01:04:17;11.80;99.90
26691;DHT22;14307;51.718;8.938;2023-09-30T01:06:45;11.80;99.90
26691;DHT22;14307;51.718;8.938;2023-09-30T01:09:11;11.80;99.90
26691;DHT22;14307;51.718;8.938;2023-09-30T01:11:40;11.70;99.90
26691;DHT22;14307;51.718;8.938;2023-09-30T01:14:27;11.70;99.90
26691;DHT22;14307;51.718;8.938;2023-09-30T01:16:55;11.60;99.90
26691;DHT22;14307;51.718;8.938;2023-09-30T01:19:22;11.60;99.90
26691;DHT22;14307;51.718;8.938;2023-09-30T01:21:55;11.60;99.90
26691;DHT22;14307;51.718;8.938;2023-09-30T01:24:29;11.60;99.90
26691;DHT22;14307;51.718;8.938;2023-09-30T01:26:56;11.50;99.90
26691;DHT22;14307;51.718;8.938;2023-09-30T01:29:24;11.60;99.90
26691;DHT22;14307;51.718;8.938;2023-09-30T01:31:52;11.50;99.90
26691;DHT22;14307;51.718;8.938;2023-09-30T01:34:21;11.60;99.90
26691;DHT22;14307;51.718;8.938;2023-09-30T01:36:49;11.70;99.90
26691;DHT22;14307;51.718;8.938;2023-09-30T01:39:16;11.80;99.90
26691;DHT22;14307;51.718;8.938;2023-09-30T01:41:44;11.70;99.90
26691;DHT22;14307;51.718;8.938;2023-09-30T01:44:11;11.60;99.90
26691;DHT22;14307;51.718;8.938;2023-09-30T01:46:39;11.70;99.90
26691;DHT22;14307;51.718;8.938;2023-09-30T01:49:06;11.80;99.90
26691;DHT22;14307;51.718;8.938;2023-09-30T01:51:33;11.80;99.90
26691;DHT22;14307;51.718;8.938;2023-09-30T01:53:59;11.80;99.90
26691;DHT22;14307;51.718;8.938;2023-09-30T01:56:26;11.90;99.90
26691;DHT22;14307;51.718;8.938;2023-09-30T01:58:53;12.00;99.90
26691;DHT22;14307;51.718;8.938;2023-09-30T02:01:21;12.00;99.90
26691;DHT22;14307;51.718;8.938;2023-09-30T02:03:50;12.00;99.90
26691;DHT22;14307;51.718;8.938;2023-09-30T02:06:17;12.00;99.90
26691;DHT22;14307;51.718;8.938;2023-09-30T02:08:44;12.10;99.90
26691;DHT22;14307;51.718;8.938;2023-09-30T02:11:11;12.10;99.90
26691;DHT22;14307;51.718;8.938;2023-09-30T02:13:41;12.10;99.90
26691;DHT22;14307;51.718;8.938;2023-09-30T02:16:13;12.10;99.90
26691;DHT22;14307;51.718;8.938;2023-09-30T02:18:42;12.00;99.90
26691;DHT22;14307;51.718;8.938;2023-09-30T02:21:11;12.10;99.90
26691;DHT22;14307;51.718;8.938;2023-09-30T02:23:38;12.10;99.90
26691;DHT22;14307;51.718;8.938;2023-09-30T02:26:05;12.30;99.90
26691;DHT22;14307;51.718;8.938;2023-09-30T02:28:32;12.30;99.90
26691;DHT22;14307;51.718;8.938;2023-09-30T02:31:00;12.20;99.90
26691;DHT22;14307;51.718;8.938;2023-09-30T02:33:27;12.20;99.90
26691;DHT22;14307;51.718;8.938;2023-09-30T02:35:57;12.20;99.90
26691;DHT22;14307;51.718;8.938;2023-09-30T02:38:24;12.20;99.90
26691;DHT22;14307;51.718;8.938;2023-09-30T02:40:51;12.10;99.90
26691;DHT22;14307;51.718;8.938;2023-09-30T02:43:18;12.10;99.90
26691;DHT22;14307;51.718;8.938;2023-09-30T02:45:47;12.10;99.90
26691;DHT22;14307;51.718;8.938;2023-09-30T02:48:15;12.10;99.90
26691;DHT22;14307;51.718;8.938;2023-09-30T02:50:43;12.10;99.90
26691;DHT22;14307;51.718;8.938;2023-09-30T02:53:13;12.20;99.90
26691;DHT22;14307;51.718;8.938;2023-09-30T02:55:40;12.20;99.90
26691;DHT22;14307;51.718;8.938;2023-09-30T02:58:10;12.20;99.90
26691;DHT22;14307;51.718;8.938;2023-09-30T03:00:37;12.20;99.90
26691;DHT22;14307;51.718;8.938;2023-09-30T03:03:05;12.20;99.90
26691;DHT22;14307;51.718;8.938;2023-09-30T03:05:32;12.30;99.90
26691;DHT22;14307;51.718;8.938;2023-09-30T03:08:00;12.30;99.90
26691;DHT22;14307;51.718;8.938;2023-09-30T03:10:27;12.30;99.90
26691;DHT22;14307;51.718;8.938;2023-09-30T03:12:56;12.20;99.90
26691;DHT22;14307;51.718;8.938;2023-09-30T03:15:28;12.20;99.90
26691;DHT22;14307;51.718;8.938;2023-09-30T03:17:58;12.20;99.90
26691;DHT22;14307;51.718;8.938;2023-09-30T03:20:26;12.10;99.90
26691;DHT22;14307;51.718;8.938;2023-09-30T03:22:53;12.10;99.90
26691;DHT22;14307;51.718;8.938;2023-09-30T03:25:20;12.10;99.90
26691;DHT22;14307;51.718;8.938;2023-09-30T03:27:47;12.10;99.90
26691;DHT22;14307;51.718;8.938;2023-09-30T03:30:15;12.20;99.90
26691;DHT22;14307;51.718;8.938;2023-09-30T03:32:43;12.30;99.90
26691;DHT22;14307;51.718;8.938;2023-09-30T03:35:11;12.20;99.90
26691;DHT22;14307;51.718;8.938;2023-09-30T03:37:47;12.20;99.90
26691;DHT22;14307;51.718;8.938;2023-09-30T03:40:15;12.20;99.90
26691;DHT22;14307;51.718;8.938;2023-09-30T03:42:49;12.20;99.90
26691;DHT22;14307;51.718;8.938;2023-09-30T03:45:23;12.20;99.90
26691;DHT22;14307;51.718;8.938;2023-09-30T03:47:50;12.20;99.90
26691;DHT22;14307;51.718;8.938;2023-09-30T03:50:18;12.20;99.90
26691;DHT22;14307;51.718;8.938;2023-09-30T03:52:45;12.10;99.90
26691;DHT22;14307;51.718;8.938;2023-09-30T03:55:14;12.10;99.90
26691;DHT22;14307;51.718;8.938;2023-09-30T03:57:42;12.20;99.90
26691;DHT22;14307;51.718;8.938;2023-09-30T04:00:10;12.10;99.90
26691;DHT22;14307;51.718;8.938;2023-09-30T04:02:43;12.00;99.90
26691;DHT22;14307;51.718;8.938;2023-09-30T04:05:10;12.10;99.90
26691;DHT22;14307;51.718;8.938;2023-09-30T04:07:39;12.10;99.90
26691;DHT22;14307;51.718;8.938;2023-09-30T04:10:09;12.10;99.90
26691;DHT22;14307;51.718;8.938;2023-09-30T04:12:36;12.10;99.90
26691;DHT22;14307;51.718;8.938;2023-09-30T04:15:04;12.10;99.90
26691;DHT22;14307;51.718;8.938;2023-09-30T04:17:31;12.10;99.90
26691;DHT22;14307;51.718;8.938;2023-09-30T04:19:58;12.10;99.90
26691;DHT22;14307;51.718;8.938;2023-09-30T04:22:25;12.20;99.90
26691;DHT22;14307;51.718;8.938;2023-09-30T04:24:54;12.20;99.90
26691;DHT22;14307;51.718;8.938;2023-09-30T04:27:21;12.10;99.90
26691;DHT22;14307;51.718;8.938;2023-09-30T04:29:48;12.20;99.90
26691;DHT22;14307;51.718;8.938;2023-09-30T04:32:16;12.10;99.90
26691;DHT22;14307;51.718;8.938;2023-09-30T04:34:43;12.00;99.90
26691;DHT22;14307;51.718;8.938;2023-09-30T04:37:15;12.10;99.90
26691;DHT22;14307;51.718;8.938;2023-09-30T04:39:42;12.10;99.90
26691;DHT22;14307;51.718;8.938;2023-09-30T04:42:10;12.00;99.90
26691;DHT22;14307;51.718;8.938;2023-09-30T04:44:38;12.00;99.90
26691;DHT22;14307;51.718;8.938;2023-09-30T04:47:05;12.00;99.90
26691;DHT22;14307;51.718;8.938;2023-09-30T04:49:32;12.00;99.90
26691;DHT22;14307;51.718;8.938;2023-09-30T04:51:59;12.00;99.90
26691;DHT22;14307;51.718;8.938;2023-09-30T04:54:27;12.00;99.90
26691;DHT22;14307;51.718;8.938;2023-09-30T04:56:56;12.00;99.90
26691;DHT22;14307;51.718;8.938;2023-09-30T04:59:23;12.00;99.90
26691;DHT22;14307;51.718;8.938;2023-09-30T05:01:51;11.90;99.90
26691;DHT22;14307;51.718;8.938;2023-09-30T05:04:18;12.00;99.90
26691;DHT22;14307;51.718;8.938;2023-09-30T05:06:45;12.00;99.90
26691;DHT22;14307;51.718;8.938;2023-09-30T05:09:12;12.00;99.90
26691;DHT22;14307;51.718;8.938;2023-09-30T05:11:39;11.90;99.90
26691;DHT22;14307;51.718;8.938;2023-09-30T05:14:06;12.00;99.90
26691;DHT22;14307;51.718;8.938;2023-09-30T05:16:33;11.90;99.90
26691;DHT22;14307;51.718;8.938;2023-09-30T05:19:00;11.90;99.90
26691;DHT22;14307;51.718;8.938;2023-09-30T05:21:27;11.90;99.90
26691;DHT22;14307;51.718;8.938;2023-09-30T05:23:54;11.90;99.90
26691;DHT22;14307;51.718;8.938;2023-09-30T05:26:21;11.90;99.90
26691;DHT22;14307;51.718;8.938;2023-09-30T05:28:47;11.90;99.90
26691;DHT22;14307;51.718;8.938;2023-09-30T05:31:14;11.80;99.90
26691;DHT22;14307;51.718;8.938;2023-09-30T05:33:41;11.70;99.90
26691;DHT22;14307;51.718;8.938;2023-09-30T05:36:08;11.90;99.90
26691;DHT22;14307;51.718;8.938;2023-09-30T05:38:35;11.90;99.90
26691;DHT22;14307;51.718;8.938;2023-09-30T05:41:02;11.80;99.90
26691;DHT22;14307;51.718;8.938;2023-09-30T05:43:29;11.70;99.90
26691;DHT22;14307;51.718;8.938;2023-09-30T05:45:56;11.70;99.90
26691;DHT22;14307;51.718;8.938;2023-09-30T05:48:27;11.70;99.90
26691;DHT22;14307;51.718;8.938;2023-09-30T05:50:55;11.70;99.90
26691;DHT22;14307;51.718;8.938;2023-09-30T05:53:22;11.70;99.90
26691;DHT22;14307;51.718;8.938;2023-09-30T05:55:49;11.60;99.90
26691;DHT22;14307;51.718;8.938;2023-09-30T05:58:17;11.60;99.90
26691;DHT22;14307;51.718;8.938;2023-09-30T06:00:44;11.60;99.90
26691;DHT22;14307;51.718;8.938;2023-09-30T06:03:11;11.60;99.90
26691;DHT22;14307;51.718;8.938;2023-09-30T06:05:41;11.60;99.90
26691;DHT22;14307;51.718;8.938;2023-09-30T06:08:09;11.80;99.90
26691;DHT22;14307;51.718;8.938;2023-09-30T06:10:37;11.80;99.90
26691;DHT22;14307;51.718;8.938;2023-09-30T06:13:10;11.80;99.90
26691;DHT22;14307;51.718;8.938;2023-09-30T06:15:41;11.80;99.90
26691;DHT22;14307;51.718;8.938;2023-09-30T06:18:09;11.80;99.90
26691;DHT22;14307;51.718;8.938;2023-09-30T06:20:41;11.80;99.90
26691;DHT22;14307;51.718;8.938;2023-09-30T06:23:08;11.90;99.90
26691;DHT22;14307;51.718;8.938;2023-09-30T06:25:36;11.90;99.90
26691;DHT22;14307;51.718;8.938;2023-09-30T06:28:03;12.00;99.90
26691;DHT22;14307;51.718;8.938;2023-09-30T06:30:30;12.10;99.90
26691;DHT22;14307;51.718;8.938;2023-09-30T06:33:01;12.10;99.90
26691;DHT22;14307;51.718;8.938;2023-09-30T06:35:28;12.00;99.90
26691;DHT22;14307;51.718;8.938;2023-09-30T06:38:03;11.90;99.90
26691;DHT22;14307;51.718;8.938;2023-09-30T06:40:33;11.80;99.90
26691;DHT22;14307;51.718;8.938;2023-09-30T06:43:04;11.80;99.90
26691;DHT22;14307;51.718;8.938;2023-09-30T06:45:31;11.80;99.90
26691;DHT22;14307;51.718;8.938;2023-09-30T06:47:59;11.70;99.90
26691;DHT22;14307;51.718;8.938;2023-09-30T06:50:26;11.70;99.90
26691;DHT22;14307;51.718;8.938;2023-09-30T06:52:53;11.70;99.90
26691;DHT22;14307;51.718;8.938;2023-09-30T06:55:20;11.80;99.90
26691;DHT22;14307;51.718;8.938;2023-09-30T06:57:47;11.80;99.90
26691;DHT22;14307;51.718;8.938;2023-09-30T07:00:14;11.90;99.90
26691;DHT22;14307;51.718;8.938;2023-09-30T07:02:42;12.00;99.90
26691;DHT22;14307;51.718;8.938;2023-09-30T07:05:10;12.00;99.90
26691;DHT22;14307;51.718;8.938;2023-09-30T07:07:38;12.20;99.90
26691;DHT22;14307;51.718;8.938;2023-09-30T07:10:12;12.30;99.90
26691;DHT22;14307;51.718;8.938;2023-09-30T07:12:40;12.30;99.90
26691;DHT22;14307;51.718;8.938;2023-09-30T07:15:07;12.40;99.90
26691;DHT22;14307;51.718;8.938;2023-09-30T07:17:35;12.40;99.90
26691;DHT22;14307;51.718;8.938;2023-09-30T07:20:03;12.70;99.90
26691;DHT22;14307;51.718;8.938;2023-09-30T07:22:32;12.70;99.90
26691;DHT22;14307;51.718;8.938;2023-09-30T07:25:18;12.80;99.90
26691;DHT22;14307;51.718;8.938;2023-09-30T07:27:46;13.00;99.90
26691;DHT22;14307;51.718;8.938;2023-09-30T07:30:13;13.20;99.90
26691;DHT22;14307;51.718;8.938;2023-09-30T07:32:42;13.30;99.90
26691;DHT22;14307;51.718;8.938;2023-09-30T07:35:10;13.40;99.90
26691;DHT22;14307;51.718;8.938;2023-09-30T07:37:37;13.50;99.90
26691;DHT22;14307;51.718;8.938;2023-09-30T07:40:05;13.60;99.90
26691;DHT22;14307;51.718;8.938;2023-09-30T07:42:33;13.70;99.90
26691;DHT22;14307;51.718;8.938;2023-09-30T07:45:00;13.80;99.90
26691;DHT22;14307;51.718;8.938;2023-09-30T07:47:27;13.80;99.90
26691;DHT22;14307;51.718;8.938;2023-09-30T07:49:54;13.90;99.90
26691;DHT22;14307;51.718;8.938;2023-09-30T07:52:21;13.80;99.90
26691;DHT22;14307;51.718;8.938;2023-09-30T07:54:48;13.90;99.90
26691;DHT22;14307;51.718;8.938;2023-09-30T07:57:14;14.00;99.90
26691;DHT22;14307;51.718;8.938;2023-09-30T07:59:41;14.10;99.90
26691;DHT22;14307;51.718;8.938;2023-09-30T08:02:08;14.10;99.90
26691;DHT22;14307;51.718;8.938;2023-09-30T08:04:35;14.20;99.90
26691;DHT22;14307;51.718;8.938;2023-09-30T08:07:02;14.20;99.90
26691;DHT22;14307;51.718;8.938;2023-09-30T08:09:29;14.20;99.90
26691;DHT22;14307;51.718;8.938;2023-09-30T08:11:56;14.20;99.90
26691;DHT22;14307;51.718;8.938;2023-09-30T08:14:23;14.30;99.90
26691;DHT22;14307;51.718;8.938;2023-09-30T08:16:50;14.60;99.90
26691;DHT22;14307;51.718;8.938;2023-09-30T08:19:17;14.90;99.90
26691;DHT22;14307;51.718;8.938;2023-09-30T08:21:44;15.10;99.90
26691;DHT22;14307;51.718;8.938;2023-09-30T08:24:11;15.00;99.90
26691;DHT22;14307;51.718;8.938;2023-09-30T08:26:38;15.00;99.90
26691;DHT22;14307;51.718;8.938;2023-09-30T08:29:05;14.90;99.90
26691;DHT22;14307;51.718;8.938;2023-09-30T08:31:33;14.80;99.90
26691;DHT22;14307;51.718;8.938;2023-09-30T08:34:00;14.70;99.90
26691;DHT22;14307;51.718;8.938;2023-09-30T08:36:30;14.80;99.90
26691;DHT22;14307;51.718;8.938;2023-09-30T08:38:57;14.70;99.90
26691;DHT22;14307;51.718;8.938;2023-09-30T08:41:32;14.90;99.90
26691;DHT22;14307;51.718;8.938;2023-09-30T08:44:01;15.00;99.90
26691;DHT22;14307;51.718;8.938;2023-09-30T08:46:34;15.00;99.90
26691;DHT22;14307;51.718;8.938;2023-09-30T08:49:03;15.40;99.90
26691;DHT22;14307;51.718;8.938;2023-09-30T08:51:31;15.70;99.90
26691;DHT22;14307;51.718;8.938;2023-09-30T08:53:59;16.00;99.90
26691;DHT22;14307;51.718;8.938;2023-09-30T08:56:30;16.20;99.90
26691;DHT22;14307;51.718;8.938;2023-09-30T08:59:02;16.50;99.90
26691;DHT22;14307;51.718;8.938;2023-09-30T09:01:31;16.80;99.90
26691;DHT22;14307;51.718;8.938;2023-09-30T09:03:58;16.80;99.90
26691;DHT22;14307;51.718;8.938;2023-09-30T09:06:26;17.10;99.90
26691;DHT22;14307;51.718;8.938;2023-09-30T09:08:53;17.20;99.90
26691;DHT22;14307;51.718;8.938;2023-09-30T09:11:23;17.00;99.90
26691;DHT22;14307;51.718;8.938;2023-09-30T09:13:51;17.00;99.90
26691;DHT22;14307;51.718;8.938;2023-09-30T09:16:24;17.00;99.90
26691;DHT22;14307;51.718;8.938;2023-09-30T09:18:51;16.90;99.90
26691;DHT22;14307;51.718;8.938;2023-09-30T09:21:19;16.80;99.90
26691;DHT22;14307;51.718;8.938;2023-09-30T09:23:48;16.50;99.90
26691;DHT22;14307;51.718;8.938;2023-09-30T09:26:31;16.40;99.90
26691;DHT22;14307;51.718;8.938;2023-09-30T09:29:03;16.40;99.90
26691;DHT22;14307;51.718;8.938;2023-09-30T09:31:35;16.20;99.90
26691;DHT22;14307;51.718;8.938;2023-09-30T09:34:04;16.20;99.90
26691;DHT22;14307;51.718;8.938;2023-09-30T09:36:39;16.40;99.90
26691;DHT22;14307;51.718;8.938;2023-09-30T09:39:07;16.50;99.90
26691;DHT22;14307;51.718;8.938;2023-09-30T09:41:52;16.30;99.90
26691;DHT22;14307;51.718;8.938;2023-09-30T09:44:20;16.30;99.90
26691;DHT22;14307;51.718;8.938;2023-09-30T09:46:51;16.30;99.90
26691;DHT22;14307;51.718;8.938;2023-09-30T09:49:19;16.30;99.90
26691;DHT22;14307;51.718;8.938;2023-09-30T09:51:47;16.10;99.90
26691;DHT22;14307;51.718;8.938;2023-09-30T09:54:16;16.10;99.90
26691;DHT22;14307;51.718;8.938;2023-09-30T09:56:44;16.10;99.90
26691;DHT22;14307;51.718;8.938;2023-09-30T09:59:12;16.10;99.90
26691;DHT22;14307;51.718;8.938;2023-09-30T10:01:40;16.20;99.90
26691;DHT22;14307;51.718;8.938;2023-09-30T10:04:11;16.50;99.90
26691;DHT22;14307;51.718;8.938;2023-09-30T10:06:39;16.80;99.90
26691;DHT22;14307;51.718;8.938;2023-09-30T10:09:09;17.10;99.90
26691;DHT22;14307;51.718;8.938;2023-09-30T10:11:38;17.00;99.90
26691;DHT22;14307;51.718;8.938;2023-09-30T10:14:06;17.00;99.90
26691;DHT22;14307;51.718;8.938;2023-09-30T10:19:13;17.50;99.90
26691;DHT22;14307;51.718;8.938;2023-09-30T10:24:43;18.00;99.90
26691;DHT22;14307;51.718;8.938;2023-09-30T10:40:49;19.60;99.90
26691;DHT22;14307;51.718;8.938;2023-09-30T10:45:57;18.90;99.90
26691;DHT22;14307;51.718;8.938;2023-09-30T10:50:54;18.10;99.90
26691;DHT22;14307;51.718;8.938;2023-09-30T10:53:22;18.00;99.90
26691;DHT22;14307;51.718;8.938;2023-09-30T10:56:00;18.10;99.90
26691;DHT22;14307;51.718;8.938;2023-09-30T11:01:14;18.50;99.90
26691;DHT22;14307;51.718;8.938;2023-09-30T11:03:42;18.70;99.90
26691;DHT22;14307;51.718;8.938;2023-09-30T11:06:16;18.90;99.90
26691;DHT22;14307;51.718;8.938;2023-09-30T11:08:50;19.10;99.90
26691;DHT22;14307;51.718;8.938;2023-09-30T11:11:17;19.00;99.90
26691;DHT22;14307;51.718;8.938;2023-09-30T11:13:44;19.00;99.90
26691;DHT22;14307;51.718;8.938;2023-09-30T11:16:12;19.20;99.90
26691;DHT22;14307;51.718;8.938;2023-09-30T11:18:39;18.80;99.90
26691;DHT22;14307;51.718;8.938;2023-09-30T11:21:08;18.70;99.90
26691;DHT22;14307;51.718;8.938;2023-09-30T11:23:37;18.90;99.90
26691;DHT22;14307;51.718;8.938;2023-09-30T11:26:04;18.90;99.90
26691;DHT22;14307;51.718;8.938;2023-09-30T11:28:50;18.90;99.90
26691;DHT22;14307;51.718;8.938;2023-09-30T11:31:17;18.70;99.90
26691;DHT22;14307;51.718;8.938;2023-09-30T11:33:49;18.60;99.90
26691;DHT22;14307;51.718;8.938;2023-09-30T11:36:21;18.10;99.90
26691;DHT22;14307;51.718;8.938;2023-09-30T11:38:50;18.00;99.90
26691;DHT22;14307;51.718;8.938;2023-09-30T11:41:18;17.90;99.90
26691;DHT22;14307;51.718;8.938;2023-09-30T11:44:11;17.50;99.90
26691;DHT22;14307;51.718;8.938;2023-09-30T11:46:57;17.30;99.90
26691;DHT22;14307;51.718;8.938;2023-09-30T11:49:29;17.10;99.90
26691;DHT22;14307;51.718;8.938;2023-09-30T11:51:58;17.00;99.90
26691;DHT22;14307;51.718;8.938;2023-09-30T11:54:46;16.90;99.90
26691;DHT22;14307;51.718;8.938;2023-09-30T11:57:17;17.00;99.90
26691;DHT22;14307;51.718;8.938;2023-09-30T11:59:46;16.90;99.90
26691;DHT22;14307;51.718;8.938;2023-09-30T12:02:14;17.00;99.90
26691;DHT22;14307;51.718;8.938;2023-09-30T12:04:43;17.50;99.90
26691;DHT22;14307;51.718;8.938;2023-09-30T12:07:12;18.00;99.90
26691;DHT22;14307;51.718;8.938;2023-09-30T12:09:39;18.50;99.90
26691;DHT22;14307;51.718;8.938;2023-09-30T12:12:07;18.80;99.90
26691;DHT22;14307;51.718;8.938;2023-09-30T12:14:39;18.80;99.90
26691;DHT22;14307;51.718;8.938;2023-09-30T12:17:07;19.20;99.90
26691;DHT22;14307;51.718;8.938;2023-09-30T12:19:40;19.60;99.90
26691;DHT22;14307;51.718;8.938;2023-09-30T12:22:08;19.60;99.90
26691;DHT22;14307;51.718;8.938;2023-09-30T12:24:37;19.30;99.90
26691;DHT22;14307;51.718;8.938;2023-09-30T12:27:04;19.40;99.90
26691;DHT22;14307;51.718;8.938;2023-09-30T12:29:31;19.70;99.90
26691;DHT22;14307;51.718;8.938;2023-09-30T12:31:58;19.70;99.90
26691;DHT22;14307;51.718;8.938;2023-09-30T12:34:25;19.70;99.90
26691;DHT22;14307;51.718;8.938;2023-09-30T12:36:54;19.60;99.90
26691;DHT22;14307;51.718;8.938;2023-09-30T12:39:22;19.70;99.90
26691;DHT22;14307;51.718;8.938;2023-09-30T12:41:52;19.80;99.90
26691;DHT22;14307;51.718;8.938;2023-09-30T12:44:19;19.90;99.90
26691;DHT22;14307;51.718;8.938;2023-09-30T12:46:46;19.90;99.90
26691;DHT22;14307;51.718;8.938;2023-09-30T12:49:13;19.90;99.90
26691;DHT22;14307;51.718;8.938;2023-09-30T12:51:41;20.00;99.90
26691;DHT22;14307;51.718;8.938;2023-09-30T12:54:08;20.10;99.90
26691;DHT22;14307;51.718;8.938;2023-09-30T12:56:35;20.00;99.90
26691;DHT22;14307;51.718;8.938;2023-09-30T12:59:02;20.00;99.90
26691;DHT22;14307;51.718;8.938;2023-09-30T13:01:29;19.80;99.90
26691;DHT22;14307;51.718;8.938;2023-09-30T13:04:02;19.90;99.90
26691;DHT22;14307;51.718;8.938;2023-09-30T13:06:29;19.90;99.90
26691;DHT22;14307;51.718;8.938;2023-09-30T13:08:59;19.90;99.90
26691;DHT22;14307;51.718;8.938;2023-09-30T13:11:27;19.90;99.90
26691;DHT22;14307;51.718;8.938;2023-09-30T13:13:54;19.90;99.90
26691;DHT22;14307;51.718;8.938;2023-09-30T13:16:21;19.70;99.90
26691;DHT22;14307;51.718;8.938;2023-09-30T13:18:54;19.90;99.90
26691;DHT22;14307;51.718;8.938;2023-09-30T13:21:21;19.90;99.90
26691;DHT22;14307;51.718;8.938;2023-09-30T13:23:48;19.60;99.90
26691;DHT22;14307;51.718;8.938;2023-09-30T13:26:15;19.70;99.90
26691;DHT22;14307;51.718;8.938;2023-09-30T13:28:42;19.70;99.90
26691;DHT22;14307;51.718;8.938;2023-09-30T13:31:09;19.80;99.90
26691;DHT22;14307;51.718;8.938;2023-09-30T13:33:36;19.80;99.90
26691;DHT22;14307;51.718;8.938;2023-09-30T13:36:03;19.90;99.90
26691;DHT22;14307;51.718;8.938;2023-09-30T13:42:44;19.60;99.90
26691;DHT22;14307;51.718;8.938;2023-09-30T13:45:12;19.20;99.90
26691;DHT22;14307;51.718;8.938;2023-09-30T13:47:38;19.00;99.90
26691;DHT22;14307;51.718;8.938;2023-09-30T13:50:06;19.20;99.90
26691;DHT22;14307;51.718;8.938;2023-09-30T13:52:36;19.10;99.90
26691;DHT22;14307;51.718;8.938;2023-09-30T13:55:03;19.10;99.90
26691;DHT22;14307;51.718;8.938;2023-09-30T13:57:34;19.20;99.90
26691;DHT22;14307;51.718;8.938;2023-09-30T14:00:03;19.40;99.90
26691;DHT22;14307;51.718;8.938;2023-09-30T14:02:38;19.50;99.90
26691;DHT22;14307;51.718;8.938;2023-09-30T14:05:07;19.60;99.90
26691;DHT22;14307;51.718;8.938;2023-09-30T14:07:36;19.60;99.90
26691;DHT22;14307;51.718;8.938;2023-09-30T14:10:07;19.60;99.90
26691;DHT22;14307;51.718;8.938;2023-09-30T14:12:37;19.80;99.90
26691;DHT22;14307;51.718;8.938;2023-09-30T14:15:06;20.00;99.90
26691;DHT22;14307;51.718;8.938;2023-09-30T14:17:34;19.90;99.90
26691;DHT22;14307;51.718;8.938;2023-09-30T14:20:03;19.90;99.90
26691;DHT22;14307;51.718;8.938;2023-09-30T14:22:33;19.90;99.90
26691;DHT22;14307;51.718;8.938;2023-09-30T14:25:00;19.80;99.90
26691;DHT22;14307;51.718;8.938;2023-09-30T14:27:30;19.90;99.90
26691;DHT22;14307;51.718;8.938;2023-09-30T14:29:57;19.90;99.90
26691;DHT22;14307;51.718;8.938;2023-09-30T14:32:24;19.60;99.90
26691;DHT22;14307;51.718;8.938;2023-09-30T14:34:51;19.50;99.90
26691;DHT22;14307;51.718;8.938;2023-09-30T14:37:18;19.40;99.90
26691;DHT22;14307;51.718;8.938;2023-09-30T14:39:45;19.40;99.90
26691;DHT22;14307;51.718;8.938;2023-09-30T14:42:12;19.20;99.90
26691;DHT22;14307;51.718;8.938;2023-09-30T14:44:39;19.00;99.90
26691;DHT22;14307;51.718;8.938;2023-09-30T14:47:09;18.70;99.90
26691;DHT22;14307;51.718;8.938;2023-09-30T14:49:36;18.70;99.90
26691;DHT22;14307;51.718;8.938;2023-09-30T14:52:03;18.60;99.90
26691;DHT22;14307;51.718;8.938;2023-09-30T14:54:31;18.60;99.90
26691;DHT22;14307;51.718;8.938;2023-09-30T14:56:59;18.70;99.90
26691;DHT22;14307;51.718;8.938;2023-09-30T14:59:25;18.80;99.90
26691;DHT22;14307;51.718;8.938;2023-09-30T15:01:53;18.70;99.90
26691;DHT22;14307;51.718;8.938;2023-09-30T15:04:22;18.60;99.90
26691;DHT22;14307;51.718;8.938;2023-09-30T15:06:50;18.50;99.90
26691;DHT22;14307;51.718;8.938;2023-09-30T15:09:17;18.50;99.90
26691;DHT22;14307;51.718;8.938;2023-09-30T15:11:44;18.30;99.90
26691;DHT22;14307;51.718;8.938;2023-09-30T15:14:11;18.30;99.90
26691;DHT22;14307;51.718;8.938;2023-09-30T15:16:38;18.30;99.90
26691;DHT22;14307;51.718;8.938;2023-09-30T15:19:05;18.30;99.90
26691;DHT22;14307;51.718;8.938;2023-09-30T15:21:32;18.20;99.90
26691;DHT22;14307;51.718;8.938;2023-09-30T15:23:59;18.00;99.90
26691;DHT22;14307;51.718;8.938;2023-09-30T15:26:31;17.90;99.90
26691;DHT22;14307;51.718;8.938;2023-09-30T15:28:58;17.80;99.90
26691;DHT22;14307;51.718;8.938;2023-09-30T15:31:32;17.70;99.90
26691;DHT22;14307;51.718;8.938;2023-09-30T15:33:59;17.70;99.90
26691;DHT22;14307;51.718;8.938;2023-09-30T15:36:26;17.70;99.90
26691;DHT22;14307;51.718;8.938;2023-09-30T15:38:53;17.60;99.90
26691;DHT22;14307;51.718;8.938;2023-09-30T15:41:23;17.70;99.90
26691;DHT22;14307;51.718;8.938;2023-09-30T15:43:51;17.70;99.90
26691;DHT22;14307;51.718;8.938;2023-09-30T15:46:19;17.60;99.90
26691;DHT22;14307;51.718;8.938;2023-09-30T15:48:46;17.70;99.90
26691;DHT22;14307;51.718;8.938;2023-09-30T15:51:13;17.70;99.90
26691;DHT22;14307;51.718;8.938;2023-09-30T15:53:40;17.60;99.90
26691;DHT22;14307;51.718;8.938;2023-09-30T15:56:09;17.60;99.90
26691;DHT22;14307;51.718;8.938;2023-09-30T15:58:36;17.70;99.90
26691;DHT22;14307;51.718;8.938;2023-09-30T16:01:03;17.70;99.90
26691;DHT22;14307;51.718;8.938;2023-09-30T16:03:30;17.60;99.90
26691;DHT22;14307;51.718;8.938;2023-09-30T16:05:58;17.40;99.90
26691;DHT22;14307;51.718;8.938;2023-09-30T16:08:25;17.40;99.90